sensor_id;sensor_type;location;lat;lon;timestamp;P1;durP1;ratioP1;P2;durP2;ratioP2
9759;SDS011;4919;48.792;9.202;2023-04-10T00:02:35;47.83;;;29.10;;
9759;SDS011;4919;48.792;9.202;2023-04-10T00:05:20;51.53;;;29.70;;
9759;SDS011;4919;48.792;9.202;2023-04-10T00:08:05;51.97;;;30.17;;
9759;SDS011;4919;48.792;9.202;2023-04-10T00:10:50;52.90;;;29.27;;
9759;SDS011;4919;48.792;9.202;2023-04-10T00:13:34;45.63;;;28.53;;
9759;SDS011;4919;48.792;9.202;2023-04-10T00:16:19;42.97;;;26.77;;
9759;SDS011;4919;48.792;9.202;2023-04-10T00:19:04;43.87;;;28.53;;
9759;SDS011;4919;48.792;9.202;2023-04-10T00:21:49;49.00;;;28.90;;
9759;SDS011;4919;48.792;9.202;2023-04-10T00:24:34;46.90;;;28.93;;
9759;SDS011;4919;48.792;9.202;2023-04-10T00:27:19;46.07;;;29.10;;
9759;SDS011;4919;48.792;9.202;2023-04-10T00:30:04;45.03;;;28.23;;
9759;SDS011;4919;48.792;9.202;2023-04-10T00:32:49;48.13;;;28.10;;
9759;SDS011;4919;48.792;9.202;2023-04-10T00:35:34;48.60;;;27.73;;
9759;SDS011;4919;48.792;9.202;2023-04-10T00:38:19;47.77;;;28.53;;
9759;SDS011;4919;48.792;9.202;2023-04-10T00:41:04;47.73;;;29.77;;
9759;SDS011;4919;48.792;9.202;2023-04-10T00:43:53;47.37;;;28.37;;
9759;SDS011;4919;48.792;9.202;2023-04-10T00:46:39;46.80;;;27.33;;
9759;SDS011;4919;48.792;9.202;2023-04-10T00:49:24;46.30;;;28.33;;
9759;SDS011;4919;48.792;9.202;2023-04-10T00:52:09;47.43;;;28.20;;
9759;SDS011;4919;48.792;9.202;2023-04-10T00:54:54;46.47;;;28.30;;
9759;SDS011;4919;48.792;9.202;2023-04-10T00:57:40;48.77;;;28.80;;
9759;SDS011;4919;48.792;9.202;2023-04-10T01:00:28;46.57;;;28.50;;
9759;SDS011;4919;48.792;9.202;2023-04-10T01:03:14;43.10;;;27.53;;
9759;SDS011;4919;48.792;9.202;2023-04-10T01:06:24;45.80;;;28.30;;
9759;SDS011;4919;48.792;9.202;2023-04-10T01:15:03;35.27;;;24.00;;
9759;SDS011;4919;48.792;9.202;2023-04-10T01:20:48;42.13;;;26.37;;
9759;SDS011;4919;48.792;9.202;2023-04-10T01:26:55;42.90;;;27.20;;
9759;SDS011;4919;48.792;9.202;2023-04-10T01:30:13;43.77;;;26.53;;
9759;SDS011;4919;48.792;9.202;2023-04-10T01:33:05;45.17;;;26.77;;
9759;SDS011;4919;48.792;9.202;2023-04-10T01:35:52;45.33;;;28.33;;
9759;SDS011;4919;48.792;9.202;2023-04-10T01:38:40;48.93;;;28.97;;
9759;SDS011;4919;48.792;9.202;2023-04-10T01:41:27;48.50;;;27.63;;
9759;SDS011;4919;48.792;9.202;2023-04-10T01:44:13;48.13;;;28.63;;
9759;SDS011;4919;48.792;9.202;2023-04-10T01:46:58;43.97;;;27.47;;
9759;SDS011;4919;48.792;9.202;2023-04-10T01:49:45;46.50;;;27.37;;
9759;SDS011;4919;48.792;9.202;2023-04-10T01:52:31;44.27;;;26.70;;
9759;SDS011;4919;48.792;9.202;2023-04-10T01:55:18;48.87;;;30.03;;
9759;SDS011;4919;48.792;9.202;2023-04-10T01:58:07;40.47;;;25.90;;
9759;SDS011;4919;48.792;9.202;2023-04-10T02:00:52;46.77;;;28.50;;
9759;SDS011;4919;48.792;9.202;2023-04-10T02:03:36;47.30;;;28.67;;
9759;SDS011;4919;48.792;9.202;2023-04-10T02:09:14;42.90;;;27.53;;
9759;SDS011;4919;48.792;9.202;2023-04-10T02:12:19;41.20;;;25.33;;
9759;SDS011;4919;48.792;9.202;2023-04-10T02:15:06;40.00;;;25.40;;
9759;SDS011;4919;48.792;9.202;2023-04-10T02:17:53;40.97;;;25.37;;
9759;SDS011;4919;48.792;9.202;2023-04-10T02:20:38;46.93;;;26.93;;
9759;SDS011;4919;48.792;9.202;2023-04-10T02:23:25;48.47;;;27.90;;
9759;SDS011;4919;48.792;9.202;2023-04-10T02:26:10;47.87;;;27.70;;
9759;SDS011;4919;48.792;9.202;2023-04-10T02:28:54;41.70;;;26.60;;
9759;SDS011;4919;48.792;9.202;2023-04-10T02:31:40;40.67;;;26.07;;
9759;SDS011;4919;48.792;9.202;2023-04-10T02:34:25;44.43;;;26.40;;
9759;SDS011;4919;48.792;9.202;2023-04-10T02:37:09;42.73;;;26.83;;
9759;SDS011;4919;48.792;9.202;2023-04-10T02:39:54;43.07;;;26.40;;
9759;SDS011;4919;48.792;9.202;2023-04-10T02:42:39;39.13;;;26.80;;
9759;SDS011;4919;48.792;9.202;2023-04-10T02:45:24;42.13;;;26.00;;
9759;SDS011;4919;48.792;9.202;2023-04-10T02:48:09;43.23;;;26.40;;
9759;SDS011;4919;48.792;9.202;2023-04-10T02:50:55;41.47;;;25.90;;
9759;SDS011;4919;48.792;9.202;2023-04-10T02:53:41;43.27;;;26.10;;
9759;SDS011;4919;48.792;9.202;2023-04-10T02:56:25;44.47;;;27.73;;
9759;SDS011;4919;48.792;9.202;2023-04-10T02:59:11;47.63;;;26.77;;
9759;SDS011;4919;48.792;9.202;2023-04-10T03:01:56;64.67;;;30.23;;
9759;SDS011;4919;48.792;9.202;2023-04-10T03:04:41;64.80;;;32.20;;
9759;SDS011;4919;48.792;9.202;2023-04-10T03:07:26;74.37;;;33.03;;
9759;SDS011;4919;48.792;9.202;2023-04-10T03:10:11;65.77;;;31.83;;
9759;SDS011;4919;48.792;9.202;2023-04-10T03:12:55;63.27;;;32.00;;
9759;SDS011;4919;48.792;9.202;2023-04-10T03:15:40;64.97;;;30.73;;
9759;SDS011;4919;48.792;9.202;2023-04-10T03:18:25;56.57;;;31.07;;
9759;SDS011;4919;48.792;9.202;2023-04-10T03:21:10;53.77;;;30.33;;
9759;SDS011;4919;48.792;9.202;2023-04-10T03:23:55;54.20;;;29.70;;
9759;SDS011;4919;48.792;9.202;2023-04-10T03:26:40;64.57;;;30.53;;
9759;SDS011;4919;48.792;9.202;2023-04-10T03:29:25;54.27;;;29.50;;
9759;SDS011;4919;48.792;9.202;2023-04-10T03:32:10;53.63;;;29.67;;
9759;SDS011;4919;48.792;9.202;2023-04-10T03:34:55;49.47;;;29.07;;
9759;SDS011;4919;48.792;9.202;2023-04-10T03:37:41;52.47;;;29.57;;
9759;SDS011;4919;48.792;9.202;2023-04-10T03:40:25;59.10;;;31.10;;
9759;SDS011;4919;48.792;9.202;2023-04-10T03:43:10;48.53;;;25.63;;
9759;SDS011;4919;48.792;9.202;2023-04-10T03:45:55;35.83;;;24.33;;
9759;SDS011;4919;48.792;9.202;2023-04-10T03:48:40;40.93;;;24.77;;
9759;SDS011;4919;48.792;9.202;2023-04-10T03:51:24;36.57;;;25.97;;
9759;SDS011;4919;48.792;9.202;2023-04-10T03:54:09;40.10;;;26.40;;
9759;SDS011;4919;48.792;9.202;2023-04-10T03:56:55;38.90;;;27.27;;
9759;SDS011;4919;48.792;9.202;2023-04-10T03:59:39;37.43;;;26.13;;
9759;SDS011;4919;48.792;9.202;2023-04-10T04:02:24;39.83;;;26.90;;
9759;SDS011;4919;48.792;9.202;2023-04-10T04:05:09;39.00;;;27.80;;
9759;SDS011;4919;48.792;9.202;2023-04-10T04:07:54;36.83;;;26.20;;
9759;SDS011;4919;48.792;9.202;2023-04-10T04:10:39;42.33;;;27.70;;
9759;SDS011;4919;48.792;9.202;2023-04-10T04:13:23;56.93;;;27.37;;
9759;SDS011;4919;48.792;9.202;2023-04-10T04:16:09;35.97;;;24.97;;
9759;SDS011;4919;48.792;9.202;2023-04-10T04:18:54;36.17;;;24.97;;
9759;SDS011;4919;48.792;9.202;2023-04-10T04:21:38;42.33;;;28.23;;
9759;SDS011;4919;48.792;9.202;2023-04-10T04:24:23;51.20;;;25.47;;
9759;SDS011;4919;48.792;9.202;2023-04-10T04:27:08;46.30;;;24.63;;
9759;SDS011;4919;48.792;9.202;2023-04-10T04:29:53;33.70;;;24.77;;
9759;SDS011;4919;48.792;9.202;2023-04-10T04:32:38;39.90;;;24.00;;
9759;SDS011;4919;48.792;9.202;2023-04-10T04:35:22;40.93;;;25.43;;
9759;SDS011;4919;48.792;9.202;2023-04-10T04:38:07;32.87;;;24.23;;
9759;SDS011;4919;48.792;9.202;2023-04-10T04:40:52;38.57;;;25.03;;
9759;SDS011;4919;48.792;9.202;2023-04-10T04:43:37;35.23;;;23.53;;
9759;SDS011;4919;48.792;9.202;2023-04-10T04:46:22;36.90;;;24.03;;
9759;SDS011;4919;48.792;9.202;2023-04-10T04:49:07;41.57;;;24.40;;
9759;SDS011;4919;48.792;9.202;2023-04-10T04:51:52;45.10;;;24.60;;
9759;SDS011;4919;48.792;9.202;2023-04-10T04:54:36;52.37;;;25.87;;
9759;SDS011;4919;48.792;9.202;2023-04-10T04:57:21;34.10;;;24.37;;
9759;SDS011;4919;48.792;9.202;2023-04-10T05:00:07;35.20;;;25.20;;
9759;SDS011;4919;48.792;9.202;2023-04-10T05:02:52;37.23;;;25.57;;
9759;SDS011;4919;48.792;9.202;2023-04-10T05:05:36;39.53;;;25.73;;
9759;SDS011;4919;48.792;9.202;2023-04-10T05:08:22;37.30;;;25.40;;
9759;SDS011;4919;48.792;9.202;2023-04-10T05:11:06;43.47;;;26.80;;
9759;SDS011;4919;48.792;9.202;2023-04-10T05:13:51;39.57;;;27.87;;
9759;SDS011;4919;48.792;9.202;2023-04-10T05:16:36;37.57;;;27.37;;
9759;SDS011;4919;48.792;9.202;2023-04-10T05:19:21;41.47;;;28.13;;
9759;SDS011;4919;48.792;9.202;2023-04-10T05:22:05;41.20;;;28.20;;
9759;SDS011;4919;48.792;9.202;2023-04-10T05:24:50;38.40;;;27.53;;
9759;SDS011;4919;48.792;9.202;2023-04-10T05:27:35;41.57;;;27.43;;
9759;SDS011;4919;48.792;9.202;2023-04-10T05:30:20;35.20;;;26.30;;
9759;SDS011;4919;48.792;9.202;2023-04-10T05:33:05;35.97;;;26.70;;
9759;SDS011;4919;48.792;9.202;2023-04-10T05:35:51;34.37;;;26.90;;
9759;SDS011;4919;48.792;9.202;2023-04-10T05:38:36;32.63;;;25.03;;
9759;SDS011;4919;48.792;9.202;2023-04-10T05:41:20;28.03;;;23.30;;
9759;SDS011;4919;48.792;9.202;2023-04-10T05:44:05;27.63;;;22.80;;
9759;SDS011;4919;48.792;9.202;2023-04-10T05:46:50;25.77;;;20.50;;
9759;SDS011;4919;48.792;9.202;2023-04-10T05:49:35;25.93;;;19.93;;
9759;SDS011;4919;48.792;9.202;2023-04-10T05:52:19;25.07;;;19.77;;
9759;SDS011;4919;48.792;9.202;2023-04-10T05:55:04;24.33;;;20.03;;
9759;SDS011;4919;48.792;9.202;2023-04-10T05:57:50;23.30;;;20.03;;
9759;SDS011;4919;48.792;9.202;2023-04-10T06:00:35;22.33;;;18.97;;
9759;SDS011;4919;48.792;9.202;2023-04-10T06:03:20;23.23;;;18.40;;
9759;SDS011;4919;48.792;9.202;2023-04-10T06:06:05;22.23;;;17.90;;
9759;SDS011;4919;48.792;9.202;2023-04-10T06:08:51;22.67;;;18.13;;
9759;SDS011;4919;48.792;9.202;2023-04-10T06:11:36;21.80;;;17.17;;
9759;SDS011;4919;48.792;9.202;2023-04-10T06:14:21;22.70;;;17.37;;
9759;SDS011;4919;48.792;9.202;2023-04-10T06:17:06;21.13;;;16.83;;
9759;SDS011;4919;48.792;9.202;2023-04-10T06:19:51;22.10;;;17.50;;
9759;SDS011;4919;48.792;9.202;2023-04-10T06:22:36;21.50;;;17.80;;
9759;SDS011;4919;48.792;9.202;2023-04-10T06:25:21;21.47;;;16.87;;
9759;SDS011;4919;48.792;9.202;2023-04-10T06:28:06;25.40;;;18.87;;
9759;SDS011;4919;48.792;9.202;2023-04-10T06:30:50;24.53;;;19.43;;
9759;SDS011;4919;48.792;9.202;2023-04-10T06:33:35;26.40;;;20.03;;
9759;SDS011;4919;48.792;9.202;2023-04-10T06:36:20;31.77;;;22.50;;
9759;SDS011;4919;48.792;9.202;2023-04-10T06:39:05;33.40;;;23.63;;
9759;SDS011;4919;48.792;9.202;2023-04-10T06:41:50;34.53;;;24.30;;
9759;SDS011;4919;48.792;9.202;2023-04-10T06:44:35;32.30;;;23.90;;
9759;SDS011;4919;48.792;9.202;2023-04-10T06:47:20;36.10;;;24.97;;
9759;SDS011;4919;48.792;9.202;2023-04-10T06:50:05;34.70;;;25.67;;
9759;SDS011;4919;48.792;9.202;2023-04-10T06:52:50;39.33;;;26.03;;
9759;SDS011;4919;48.792;9.202;2023-04-10T06:55:35;34.63;;;25.73;;
9759;SDS011;4919;48.792;9.202;2023-04-10T06:58:20;38.73;;;26.57;;
9759;SDS011;4919;48.792;9.202;2023-04-10T07:01:05;35.87;;;25.60;;
9759;SDS011;4919;48.792;9.202;2023-04-10T07:03:50;38.97;;;27.30;;
9759;SDS011;4919;48.792;9.202;2023-04-10T07:06:35;36.93;;;26.50;;
9759;SDS011;4919;48.792;9.202;2023-04-10T07:09:20;40.60;;;27.53;;
9759;SDS011;4919;48.792;9.202;2023-04-10T07:12:04;40.07;;;28.33;;
9759;SDS011;4919;48.792;9.202;2023-04-10T07:14:49;41.77;;;27.87;;
9759;SDS011;4919;48.792;9.202;2023-04-10T07:17:34;42.63;;;29.17;;
9759;SDS011;4919;48.792;9.202;2023-04-10T07:20:19;43.97;;;29.63;;
9759;SDS011;4919;48.792;9.202;2023-04-10T07:23:04;44.40;;;29.53;;
9759;SDS011;4919;48.792;9.202;2023-04-10T07:25:49;41.83;;;28.43;;
9759;SDS011;4919;48.792;9.202;2023-04-10T07:28:34;41.20;;;29.07;;
9759;SDS011;4919;48.792;9.202;2023-04-10T07:31:19;40.67;;;28.67;;
9759;SDS011;4919;48.792;9.202;2023-04-10T07:34:04;43.23;;;28.97;;
9759;SDS011;4919;48.792;9.202;2023-04-10T07:36:49;42.30;;;28.90;;
9759;SDS011;4919;48.792;9.202;2023-04-10T07:39:34;43.17;;;28.87;;
9759;SDS011;4919;48.792;9.202;2023-04-10T07:42:19;43.57;;;28.60;;
9759;SDS011;4919;48.792;9.202;2023-04-10T07:45:03;41.93;;;27.40;;
9759;SDS011;4919;48.792;9.202;2023-04-10T07:47:49;41.63;;;27.57;;
9759;SDS011;4919;48.792;9.202;2023-04-10T07:50:33;41.20;;;28.00;;
9759;SDS011;4919;48.792;9.202;2023-04-10T07:53:18;41.57;;;27.53;;
9759;SDS011;4919;48.792;9.202;2023-04-10T07:56:03;38.10;;;27.03;;
9759;SDS011;4919;48.792;9.202;2023-04-10T07:58:49;41.93;;;28.33;;
9759;SDS011;4919;48.792;9.202;2023-04-10T08:01:34;46.30;;;27.23;;
9759;SDS011;4919;48.792;9.202;2023-04-10T08:04:20;41.93;;;27.77;;
9759;SDS011;4919;48.792;9.202;2023-04-10T08:07:04;41.57;;;27.23;;
9759;SDS011;4919;48.792;9.202;2023-04-10T08:09:49;40.93;;;26.17;;
9759;SDS011;4919;48.792;9.202;2023-04-10T08:12:34;41.00;;;25.90;;
9759;SDS011;4919;48.792;9.202;2023-04-10T08:15:19;36.57;;;24.20;;
9759;SDS011;4919;48.792;9.202;2023-04-10T08:18:04;38.67;;;23.87;;
9759;SDS011;4919;48.792;9.202;2023-04-10T08:20:49;38.83;;;25.43;;
9759;SDS011;4919;48.792;9.202;2023-04-10T08:23:34;38.20;;;23.47;;
9759;SDS011;4919;48.792;9.202;2023-04-10T08:26:19;39.00;;;24.83;;
9759;SDS011;4919;48.792;9.202;2023-04-10T08:29:04;39.13;;;23.93;;
9759;SDS011;4919;48.792;9.202;2023-04-10T08:31:49;33.70;;;23.37;;
9759;SDS011;4919;48.792;9.202;2023-04-10T08:34:34;33.50;;;22.13;;
9759;SDS011;4919;48.792;9.202;2023-04-10T08:37:19;30.87;;;20.97;;
9759;SDS011;4919;48.792;9.202;2023-04-10T08:40:04;31.30;;;21.13;;
9759;SDS011;4919;48.792;9.202;2023-04-10T08:42:49;31.50;;;18.30;;
9759;SDS011;4919;48.792;9.202;2023-04-10T08:45:34;28.13;;;19.70;;
9759;SDS011;4919;48.792;9.202;2023-04-10T08:48:19;33.10;;;21.17;;
9759;SDS011;4919;48.792;9.202;2023-04-10T08:51:05;27.20;;;18.37;;
9759;SDS011;4919;48.792;9.202;2023-04-10T08:53:52;30.17;;;19.50;;
9759;SDS011;4919;48.792;9.202;2023-04-10T08:56:49;29.27;;;18.97;;
9759;SDS011;4919;48.792;9.202;2023-04-10T08:59:33;26.17;;;17.57;;
9759;SDS011;4919;48.792;9.202;2023-04-10T09:02:18;27.50;;;18.77;;
9759;SDS011;4919;48.792;9.202;2023-04-10T09:05:03;25.93;;;17.27;;
9759;SDS011;4919;48.792;9.202;2023-04-10T09:07:49;24.83;;;17.13;;
9759;SDS011;4919;48.792;9.202;2023-04-10T09:10:34;23.53;;;16.83;;
9759;SDS011;4919;48.792;9.202;2023-04-10T09:13:33;25.77;;;15.87;;
9759;SDS011;4919;48.792;9.202;2023-04-10T09:16:18;24.87;;;15.90;;
9759;SDS011;4919;48.792;9.202;2023-04-10T09:19:12;23.43;;;15.80;;
9759;SDS011;4919;48.792;9.202;2023-04-10T09:21:57;24.60;;;16.67;;
9759;SDS011;4919;48.792;9.202;2023-04-10T09:24:42;26.87;;;18.70;;
9759;SDS011;4919;48.792;9.202;2023-04-10T09:27:30;26.50;;;19.10;;
9759;SDS011;4919;48.792;9.202;2023-04-10T09:30:15;24.27;;;17.60;;
9759;SDS011;4919;48.792;9.202;2023-04-10T09:33:24;27.77;;;17.73;;
9759;SDS011;4919;48.792;9.202;2023-04-10T09:36:11;20.67;;;15.40;;
9759;SDS011;4919;48.792;9.202;2023-04-10T09:38:56;19.60;;;15.33;;
9759;SDS011;4919;48.792;9.202;2023-04-10T09:41:51;23.63;;;15.93;;
9759;SDS011;4919;48.792;9.202;2023-04-10T09:44:37;23.27;;;15.23;;
9759;SDS011;4919;48.792;9.202;2023-04-10T09:47:22;20.93;;;14.47;;
9759;SDS011;4919;48.792;9.202;2023-04-10T09:50:07;17.80;;;13.80;;
9759;SDS011;4919;48.792;9.202;2023-04-10T09:52:56;17.20;;;12.30;;
9759;SDS011;4919;48.792;9.202;2023-04-10T09:55:41;18.20;;;11.83;;
9759;SDS011;4919;48.792;9.202;2023-04-10T09:58:26;13.17;;;9.40;;
9759;SDS011;4919;48.792;9.202;2023-04-10T10:01:11;13.33;;;9.70;;
9759;SDS011;4919;48.792;9.202;2023-04-10T10:03:56;13.90;;;10.50;;
9759;SDS011;4919;48.792;9.202;2023-04-10T10:06:46;15.10;;;11.17;;
9759;SDS011;4919;48.792;9.202;2023-04-10T10:09:30;15.27;;;10.70;;
9759;SDS011;4919;48.792;9.202;2023-04-10T10:12:50;14.67;;;10.90;;
9759;SDS011;4919;48.792;9.202;2023-04-10T10:18:24;15.83;;;11.30;;
9759;SDS011;4919;48.792;9.202;2023-04-10T10:21:11;13.60;;;9.47;;
9759;SDS011;4919;48.792;9.202;2023-04-10T10:23:57;14.87;;;9.13;;
9759;SDS011;4919;48.792;9.202;2023-04-10T10:26:44;12.17;;;9.63;;
9759;SDS011;4919;48.792;9.202;2023-04-10T10:29:31;15.27;;;10.00;;
9759;SDS011;4919;48.792;9.202;2023-04-10T10:32:19;15.77;;;10.83;;
9759;SDS011;4919;48.792;9.202;2023-04-10T10:35:05;13.60;;;9.47;;
9759;SDS011;4919;48.792;9.202;2023-04-10T10:37:49;12.60;;;9.83;;
9759;SDS011;4919;48.792;9.202;2023-04-10T10:46:36;16.67;;;9.10;;
9759;SDS011;4919;48.792;9.202;2023-04-10T10:52:36;13.23;;;9.00;;
9759;SDS011;4919;48.792;9.202;2023-04-10T10:58:08;12.73;;;9.17;;
9759;SDS011;4919;48.792;9.202;2023-04-10T11:03:41;15.20;;;10.40;;
9759;SDS011;4919;48.792;9.202;2023-04-10T11:07:00;15.13;;;9.67;;
9759;SDS011;4919;48.792;9.202;2023-04-10T11:09:48;14.40;;;10.37;;
9759;SDS011;4919;48.792;9.202;2023-04-10T11:12:36;13.47;;;10.03;;
9759;SDS011;4919;48.792;9.202;2023-04-10T11:15:57;15.00;;;10.47;;
9759;SDS011;4919;48.792;9.202;2023-04-10T11:21:28;14.57;;;9.13;;
9759;SDS011;4919;48.792;9.202;2023-04-10T11:24:13;16.30;;;9.93;;
9759;SDS011;4919;48.792;9.202;2023-04-10T11:26:58;14.30;;;9.90;;
9759;SDS011;4919;48.792;9.202;2023-04-10T11:29:43;14.67;;;10.17;;
9759;SDS011;4919;48.792;9.202;2023-04-10T11:32:39;12.90;;;10.07;;
9759;SDS011;4919;48.792;9.202;2023-04-10T11:35:25;14.03;;;10.03;;
9759;SDS011;4919;48.792;9.202;2023-04-10T11:38:11;13.10;;;9.40;;
9759;SDS011;4919;48.792;9.202;2023-04-10T11:41:01;12.73;;;9.67;;
9759;SDS011;4919;48.792;9.202;2023-04-10T11:43:50;13.00;;;10.00;;
9759;SDS011;4919;48.792;9.202;2023-04-10T11:46:42;14.93;;;11.00;;
9759;SDS011;4919;48.792;9.202;2023-04-10T11:49:32;12.17;;;8.73;;
9759;SDS011;4919;48.792;9.202;2023-04-10T11:52:23;15.70;;;10.17;;
9759;SDS011;4919;48.792;9.202;2023-04-10T11:55:08;14.93;;;9.50;;
9759;SDS011;4919;48.792;9.202;2023-04-10T11:57:53;11.10;;;8.80;;
9759;SDS011;4919;48.792;9.202;2023-04-10T12:00:37;12.53;;;9.30;;
9759;SDS011;4919;48.792;9.202;2023-04-10T12:06:20;11.67;;;9.30;;
9759;SDS011;4919;48.792;9.202;2023-04-10T12:09:11;12.53;;;8.90;;
9759;SDS011;4919;48.792;9.202;2023-04-10T12:12:03;13.43;;;9.00;;
9759;SDS011;4919;48.792;9.202;2023-04-10T12:14:49;13.03;;;9.17;;
9759;SDS011;4919;48.792;9.202;2023-04-10T12:17:34;12.37;;;8.10;;
9759;SDS011;4919;48.792;9.202;2023-04-10T12:20:19;10.27;;;7.80;;
9759;SDS011;4919;48.792;9.202;2023-04-10T12:23:04;8.00;;;5.37;;
9759;SDS011;4919;48.792;9.202;2023-04-10T12:25:50;8.00;;;5.87;;
9759;SDS011;4919;48.792;9.202;2023-04-10T12:28:35;10.77;;;7.17;;
9759;SDS011;4919;48.792;9.202;2023-04-10T12:31:31;11.93;;;7.70;;
9759;SDS011;4919;48.792;9.202;2023-04-10T12:34:17;10.43;;;7.27;;
9759;SDS011;4919;48.792;9.202;2023-04-10T12:37:02;11.03;;;6.73;;
9759;SDS011;4919;48.792;9.202;2023-04-10T12:39:47;7.63;;;6.03;;
9759;SDS011;4919;48.792;9.202;2023-04-10T12:42:32;9.20;;;6.07;;
9759;SDS011;4919;48.792;9.202;2023-04-10T12:45:42;7.17;;;5.80;;
9759;SDS011;4919;48.792;9.202;2023-04-10T12:48:28;8.37;;;5.97;;
9759;SDS011;4919;48.792;9.202;2023-04-10T12:51:13;7.57;;;6.20;;
9759;SDS011;4919;48.792;9.202;2023-04-10T12:53:58;8.27;;;6.73;;
9759;SDS011;4919;48.792;9.202;2023-04-10T12:56:43;10.30;;;7.10;;
9759;SDS011;4919;48.792;9.202;2023-04-10T12:59:28;8.33;;;6.53;;
9759;SDS011;4919;48.792;9.202;2023-04-10T13:02:13;9.67;;;7.67;;
9759;SDS011;4919;48.792;9.202;2023-04-10T13:04:58;7.80;;;6.87;;
9759;SDS011;4919;48.792;9.202;2023-04-10T13:07:43;11.63;;;7.10;;
9759;SDS011;4919;48.792;9.202;2023-04-10T13:10:28;10.60;;;7.50;;
9759;SDS011;4919;48.792;9.202;2023-04-10T13:13:13;9.33;;;7.77;;
9759;SDS011;4919;48.792;9.202;2023-04-10T13:15:58;10.93;;;7.57;;
9759;SDS011;4919;48.792;9.202;2023-04-10T13:18:43;10.17;;;7.40;;
9759;SDS011;4919;48.792;9.202;2023-04-10T13:21:28;10.33;;;7.67;;
9759;SDS011;4919;48.792;9.202;2023-04-10T13:24:13;11.80;;;8.37;;
9759;SDS011;4919;48.792;9.202;2023-04-10T13:26:57;9.23;;;7.87;;
9759;SDS011;4919;48.792;9.202;2023-04-10T13:29:42;10.70;;;8.30;;
9759;SDS011;4919;48.792;9.202;2023-04-10T13:32:27;9.90;;;7.37;;
9759;SDS011;4919;48.792;9.202;2023-04-10T13:35:12;8.90;;;7.83;;
9759;SDS011;4919;48.792;9.202;2023-04-10T13:37:57;10.47;;;7.93;;
9759;SDS011;4919;48.792;9.202;2023-04-10T13:40:43;11.50;;;8.10;;
9759;SDS011;4919;48.792;9.202;2023-04-10T13:43:28;10.83;;;7.97;;
9759;SDS011;4919;48.792;9.202;2023-04-10T13:46:13;10.07;;;7.43;;
9759;SDS011;4919;48.792;9.202;2023-04-10T13:48:57;9.17;;;7.03;;
9759;SDS011;4919;48.792;9.202;2023-04-10T13:51:46;10.47;;;7.43;;
9759;SDS011;4919;48.792;9.202;2023-04-10T13:54:30;10.50;;;7.63;;
9759;SDS011;4919;48.792;9.202;2023-04-10T13:57:15;9.87;;;7.37;;
9759;SDS011;4919;48.792;9.202;2023-04-10T14:00:00;8.73;;;7.07;;
9759;SDS011;4919;48.792;9.202;2023-04-10T14:02:45;9.33;;;7.40;;
9759;SDS011;4919;48.792;9.202;2023-04-10T14:05:30;11.60;;;7.90;;
9759;SDS011;4919;48.792;9.202;2023-04-10T14:08:15;8.33;;;6.53;;
9759;SDS011;4919;48.792;9.202;2023-04-10T14:11:00;9.27;;;6.80;;
9759;SDS011;4919;48.792;9.202;2023-04-10T14:13:45;11.63;;;7.90;;
9759;SDS011;4919;48.792;9.202;2023-04-10T14:16:30;10.63;;;7.50;;
9759;SDS011;4919;48.792;9.202;2023-04-10T14:19:14;9.17;;;7.67;;
9759;SDS011;4919;48.792;9.202;2023-04-10T14:21:59;11.50;;;8.30;;
9759;SDS011;4919;48.792;9.202;2023-04-10T14:24:44;10.50;;;7.73;;
9759;SDS011;4919;48.792;9.202;2023-04-10T14:27:29;11.67;;;7.63;;
9759;SDS011;4919;48.792;9.202;2023-04-10T14:30:14;9.87;;;7.90;;
9759;SDS011;4919;48.792;9.202;2023-04-10T14:32:59;11.20;;;7.40;;
9759;SDS011;4919;48.792;9.202;2023-04-10T14:35:44;9.57;;;7.23;;
9759;SDS011;4919;48.792;9.202;2023-04-10T14:38:29;8.43;;;7.50;;
9759;SDS011;4919;48.792;9.202;2023-04-10T14:41:14;10.07;;;7.37;;
9759;SDS011;4919;48.792;9.202;2023-04-10T14:43:59;10.47;;;8.13;;
9759;SDS011;4919;48.792;9.202;2023-04-10T14:46:45;9.23;;;7.80;;
9759;SDS011;4919;48.792;9.202;2023-04-10T14:49:30;10.03;;;7.90;;
9759;SDS011;4919;48.792;9.202;2023-04-10T14:52:15;11.97;;;8.30;;
9759;SDS011;4919;48.792;9.202;2023-04-10T14:55:00;10.23;;;7.80;;
9759;SDS011;4919;48.792;9.202;2023-04-10T14:57:44;9.23;;;7.80;;
9759;SDS011;4919;48.792;9.202;2023-04-10T15:00:31;8.03;;;6.90;;
9759;SDS011;4919;48.792;9.202;2023-04-10T15:03:16;10.20;;;7.47;;
9759;SDS011;4919;48.792;9.202;2023-04-10T15:06:01;13.90;;;7.37;;
9759;SDS011;4919;48.792;9.202;2023-04-10T15:08:46;9.27;;;7.53;;
9759;SDS011;4919;48.792;9.202;2023-04-10T15:11:30;8.93;;;7.50;;
9759;SDS011;4919;48.792;9.202;2023-04-10T15:14:15;8.50;;;7.53;;
9759;SDS011;4919;48.792;9.202;2023-04-10T15:17:00;7.80;;;7.00;;
9759;SDS011;4919;48.792;9.202;2023-04-10T15:19:45;7.90;;;6.90;;
9759;SDS011;4919;48.792;9.202;2023-04-10T15:22:30;8.30;;;7.07;;
9759;SDS011;4919;48.792;9.202;2023-04-10T15:25:15;8.13;;;7.23;;
9759;SDS011;4919;48.792;9.202;2023-04-10T15:28:00;7.70;;;6.77;;
9759;SDS011;4919;48.792;9.202;2023-04-10T15:30:44;7.40;;;6.23;;
9759;SDS011;4919;48.792;9.202;2023-04-10T15:33:29;7.97;;;6.50;;
9759;SDS011;4919;48.792;9.202;2023-04-10T15:36:14;7.13;;;6.30;;
9759;SDS011;4919;48.792;9.202;2023-04-10T15:38:59;7.97;;;7.17;;
9759;SDS011;4919;48.792;9.202;2023-04-10T15:41:44;8.63;;;7.33;;
9759;SDS011;4919;48.792;9.202;2023-04-10T15:44:30;8.83;;;7.13;;
9759;SDS011;4919;48.792;9.202;2023-04-10T15:47:15;8.10;;;7.13;;
9759;SDS011;4919;48.792;9.202;2023-04-10T15:50:00;7.63;;;6.83;;
9759;SDS011;4919;48.792;9.202;2023-04-10T15:52:45;8.10;;;6.10;;
9759;SDS011;4919;48.792;9.202;2023-04-10T15:55:30;7.47;;;6.27;;
9759;SDS011;4919;48.792;9.202;2023-04-10T15:58:15;7.60;;;6.07;;
9759;SDS011;4919;48.792;9.202;2023-04-10T16:01:00;7.20;;;6.40;;
9759;SDS011;4919;48.792;9.202;2023-04-10T16:03:44;7.87;;;6.17;;
9759;SDS011;4919;48.792;9.202;2023-04-10T16:06:29;6.80;;;6.10;;
9759;SDS011;4919;48.792;9.202;2023-04-10T16:09:14;7.80;;;6.37;;
9759;SDS011;4919;48.792;9.202;2023-04-10T16:11:59;6.90;;;6.20;;
9759;SDS011;4919;48.792;9.202;2023-04-10T16:14:44;7.40;;;6.33;;
9759;SDS011;4919;48.792;9.202;2023-04-10T16:17:29;6.50;;;5.60;;
9759;SDS011;4919;48.792;9.202;2023-04-10T16:20:14;6.30;;;5.70;;
9759;SDS011;4919;48.792;9.202;2023-04-10T16:22:59;7.53;;;6.53;;
9759;SDS011;4919;48.792;9.202;2023-04-10T16:25:44;7.53;;;6.37;;
9759;SDS011;4919;48.792;9.202;2023-04-10T16:28:29;7.60;;;6.20;;
9759;SDS011;4919;48.792;9.202;2023-04-10T16:31:13;7.87;;;6.50;;
9759;SDS011;4919;48.792;9.202;2023-04-10T16:33:58;10.30;;;7.20;;
9759;SDS011;4919;48.792;9.202;2023-04-10T16:36:43;7.53;;;6.70;;
9759;SDS011;4919;48.792;9.202;2023-04-10T16:39:28;7.77;;;6.50;;
9759;SDS011;4919;48.792;9.202;2023-04-10T16:42:13;7.73;;;6.93;;
9759;SDS011;4919;48.792;9.202;2023-04-10T16:44:58;7.50;;;6.60;;
9759;SDS011;4919;48.792;9.202;2023-04-10T16:47:43;7.50;;;6.70;;
9759;SDS011;4919;48.792;9.202;2023-04-10T16:50:27;7.83;;;7.03;;
9759;SDS011;4919;48.792;9.202;2023-04-10T16:53:12;8.83;;;7.00;;
9759;SDS011;4919;48.792;9.202;2023-04-10T16:55:57;8.27;;;7.03;;
9759;SDS011;4919;48.792;9.202;2023-04-10T16:58:42;8.00;;;6.80;;
9759;SDS011;4919;48.792;9.202;2023-04-10T17:01:27;7.13;;;5.97;;
9759;SDS011;4919;48.792;9.202;2023-04-10T17:04:12;7.77;;;6.57;;
9759;SDS011;4919;48.792;9.202;2023-04-10T17:06:57;8.23;;;6.00;;
9759;SDS011;4919;48.792;9.202;2023-04-10T17:09:42;7.10;;;6.40;;
9759;SDS011;4919;48.792;9.202;2023-04-10T17:12:27;6.80;;;5.93;;
9759;SDS011;4919;48.792;9.202;2023-04-10T17:15:12;8.70;;;6.50;;
9759;SDS011;4919;48.792;9.202;2023-04-10T17:17:56;6.87;;;5.73;;
9759;SDS011;4919;48.792;9.202;2023-04-10T17:20:41;7.03;;;6.20;;
9759;SDS011;4919;48.792;9.202;2023-04-10T17:23:27;6.87;;;6.17;;
9759;SDS011;4919;48.792;9.202;2023-04-10T17:26:13;6.97;;;5.87;;
9759;SDS011;4919;48.792;9.202;2023-04-10T17:28:58;8.47;;;6.70;;